Time;durP1;ratioP1;P1;durP2;ratioP2;P2;SDS_P1;SDS_P2;PMS_P1;PMS_P2;Temp;Humidity;BMP_temperature;BMP_pressure;BME280_temperature;BME280_humidity;BME280_pressure;Samples;Min_cycle;Max_cycle;Signal;HPM_P1;HPM_P2
2023/04/18 00:02:07;;;;;;;0.90;0.90;;;8.20;99.90;;;;;;5095928;28;20063;-74
2023/04/18 00:04:33;;;;;;;1.00;1.00;;;8.20;99.90;;;;;;5129612;27;20046;-74
2023/04/18 00:06:59;;;;;;;1.10;1.10;;;8.10;99.90;;;;;;5096720;28;20047;-74
2023/04/18 00:09:25;;;;;;;1.05;1.05;;;8.10;99.90;;;;;;5129645;27;20093;-74
2023/04/18 00:11:51;;;;;;;1.00;1.00;;;8.10;99.90;;;;;;5095648;28;20396;-75
2023/04/18 00:14:18;;;;;;;1.10;1.00;;;8.10;99.90;;;;;;5095300;28;20071;-74
2023/04/18 00:16:45;;;;;;;1.10;1.10;;;8.10;99.90;;;;;;5096782;28;20044;-74
2023/04/18 00:19:11;;;;;;;1.00;1.00;;;8.20;99.90;;;;;;5078347;28;20067;-74
2023/04/18 00:21:37;;;;;;;1.00;1.00;;;8.10;99.90;;;;;;5095203;28;20135;-75
2023/04/18 00:24:03;;;;;;;1.08;1.08;;;8.00;99.90;;;;;;5096429;28;20044;-74
2023/04/18 00:26:28;;;;;;;2.15;1.00;;;7.90;99.90;;;;;;5096477;28;20043;-75
2023/04/18 00:28:54;;;;;;;1.15;1.10;;;7.90;99.90;;;;;;5129423;27;20040;-75
2023/04/18 00:31:19;;;;;;;0.98;0.98;;;7.90;99.90;;;;;;5129139;27;20408;-74
2023/04/18 00:33:45;;;;;;;1.65;1.00;;;7.90;99.90;;;;;;5078128;28;20097;-74
2023/04/18 00:36:10;;;;;;;1.25;1.20;;;7.90;99.90;;;;;;5094819;28;20479;-74
2023/04/18 00:38:36;;;;;;;1.00;1.00;;;7.90;99.90;;;;;;5095838;28;20131;-74
2023/04/18 00:41:02;;;;;;;1.00;1.00;;;7.90;99.90;;;;;;5096357;28;20115;-74
2023/04/18 00:43:27;;;;;;;1.02;1.02;;;7.90;99.90;;;;;;5077902;28;20127;-74
2023/04/18 00:45:55;;;;;;;1.00;1.00;;;7.90;99.90;;;;;;5077797;28;20081;-74
2023/04/18 00:48:22;;;;;;;1.20;1.10;;;7.90;99.90;;;;;;5094983;28;20040;-74
2023/04/18 00:50:47;;;;;;;1.20;1.10;;;7.90;99.90;;;;;;5096166;28;20036;-74
2023/04/18 00:53:14;;;;;;;1.10;1.10;;;7.90;99.90;;;;;;5096228;28;20417;-74
2023/04/18 00:55:40;;;;;;;1.33;1.23;;;7.80;99.90;;;;;;5094492;28;20135;-74
2023/04/18 00:58:06;;;;;;;1.05;1.05;;;7.70;99.90;;;;;;5096143;28;20036;-74
2023/04/18 01:00:31;;;;;;;1.00;1.00;;;7.70;99.90;;;;;;5077712;28;20043;-74
2023/04/18 01:02:58;;;;;;;1.13;1.10;;;7.70;99.90;;;;;;5095948;28;20032;-74
2023/04/18 01:05:25;;;;;;;1.20;1.10;;;7.70;99.90;;;;;;5077845;28;20360;-74
2023/04/18 01:07:50;;;;;;;1.15;1.10;;;7.50;99.90;;;;;;5094374;28;20399;-74
2023/04/18 01:10:17;;;;;;;1.08;1.08;;;7.40;99.90;;;;;;5094298;28;20107;-74
2023/04/18 01:12:42;;;;;;;1.08;1.08;;;7.40;99.90;;;;;;5095753;28;20068;-74
2023/04/18 01:15:08;;;;;;;1.10;1.10;;;7.40;99.90;;;;;;5094489;28;20075;-74
2023/04/18 01:17:34;;;;;;;1.10;1.00;;;7.40;99.90;;;;;;5095729;28;20392;-74
2023/04/18 01:20:05;;;;;;;1.00;1.00;;;7.40;99.90;;;;;;5128193;27;20042;-74
2023/04/18 01:22:31;;;;;;;1.08;1.08;;;7.20;99.90;;;;;;5094348;28;20035;-73
2023/04/18 01:24:56;;;;;;;1.00;1.00;;;7.30;99.90;;;;;;5095476;28;20032;-73
2023/04/18 01:27:22;;;;;;;1.02;1.00;;;7.30;99.90;;;;;;5077060;28;20044;-73
2023/04/18 01:29:48;;;;;;;1.10;1.10;;;7.20;99.90;;;;;;5095456;28;20494;-74
2023/04/18 01:32:16;;;;;;;1.15;1.15;;;7.30;99.90;;;;;;5093969;28;20519;-74
2023/04/18 01:34:42;;;;;;;1.00;1.00;;;7.20;99.90;;;;;;5077159;28;20032;-73
2023/04/18 01:37:07;;;;;;;1.10;1.10;;;7.20;99.90;;;;;;5076850;28;20570;-74
2023/04/18 01:39:33;;;;;;;1.10;1.10;;;7.20;99.90;;;;;;5093526;28;20055;-74
2023/04/18 01:42:00;;;;;;;1.30;1.20;;;7.30;99.90;;;;;;5095215;28;20490;-73
2023/04/18 01:44:26;;;;;;;1.10;1.10;;;7.30;99.90;;;;;;5095182;28;20090;-74
2023/04/18 01:46:51;;;;;;;1.33;1.30;;;7.30;99.90;;;;;;5095105;28;20476;-74
2023/04/18 01:49:17;;;;;;;1.08;1.08;;;7.30;99.90;;;;;;5076935;28;20097;-73
2023/04/18 01:51:43;;;;;;;1.00;1.00;;;7.30;99.90;;;;;;5093708;28;20046;-73
2023/04/18 01:54:08;;;;;;;1.25;1.25;;;7.30;99.90;;;;;;5127766;27;20055;-74
2023/04/18 01:56:34;;;;;;;1.25;1.10;;;7.10;99.90;;;;;;5093144;28;20040;-73
2023/04/18 01:58:59;;;;;;;1.33;1.20;;;7.10;99.90;;;;;;5092970;28;20040;-73
2023/04/18 02:01:25;;;;;;;1.10;1.10;;;7.20;99.90;;;;;;5094463;28;20036;-73
2023/04/18 02:03:51;;;;;;;1.10;1.10;;;7.20;99.90;;;;;;5093555;28;20036;-74
2023/04/18 02:06:16;;;;;;;1.10;1.10;;;7.20;99.90;;;;;;5076236;28;20047;-73
2023/04/18 02:08:42;;;;;;;1.20;1.10;;;7.10;99.90;;;;;;5093091;28;20040;-73
2023/04/18 02:11:07;;;;;;;1.10;1.10;;;7.10;99.90;;;;;;5076199;28;20035;-73
2023/04/18 02:13:33;;;;;;;1.20;1.20;;;7.10;99.90;;;;;;5093088;28;20089;-73
2023/04/18 02:15:59;;;;;;;1.10;1.10;;;7.10;99.90;;;;;;5093255;28;20446;-74
2023/04/18 02:18:25;;;;;;;1.20;1.20;;;7.10;99.90;;;;;;5092990;28;20476;-73
2023/04/18 02:20:51;;;;;;;1.10;1.10;;;7.10;99.90;;;;;;5093240;28;20123;-73
2023/04/18 02:23:17;;;;;;;1.20;1.20;;;7.20;99.90;;;;;;5093444;28;20468;-73
2023/04/18 02:25:43;;;;;;;1.17;1.17;;;7.20;99.90;;;;;;5075966;28;20046;-73
2023/04/18 02:28:08;;;;;;;1.45;1.35;;;7.20;99.90;;;;;;5076014;28;20040;-74
2023/04/18 02:30:34;;;;;;;1.10;1.10;;;7.20;99.90;;;;;;5092792;28;20112;-74
2023/04/18 02:32:59;;;;;;;1.38;1.30;;;7.20;99.90;;;;;;5075832;28;20044;-74
2023/04/18 02:35:26;;;;;;;1.15;1.15;;;7.20;99.90;;;;;;5094156;28;20047;-74
2023/04/18 02:37:52;;;;;;;1.50;1.40;;;7.20;99.90;;;;;;5092815;28;20044;-73
2023/04/18 02:40:18;;;;;;;1.20;1.20;;;7.20;99.90;;;;;;5093920;28;20044;-73
2023/04/18 02:42:44;;;;;;;1.30;1.30;;;7.20;99.90;;;;;;5092574;28;20056;-74
2023/04/18 02:45:10;;;;;;;1.40;1.40;;;7.30;99.90;;;;;;5075638;28;20040;-74
2023/04/18 02:47:37;;;;;;;1.30;1.30;;;7.40;99.90;;;;;;5093993;28;20031;-74
2023/04/18 02:50:03;;;;;;;1.60;1.15;;;7.30;99.90;;;;;;5092405;28;20040;-74
2023/04/18 02:52:30;;;;;;;1.30;1.20;;;7.40;99.90;;;;;;5092389;28;20055;-74
2023/04/18 02:54:55;;;;;;;1.30;1.20;;;7.40;99.90;;;;;;5092341;28;20047;-74
2023/04/18 02:57:21;;;;;;;1.30;1.25;;;7.40;99.90;;;;;;5092220;28;20126;-74
2023/04/18 02:59:46;;;;;;;1.30;1.20;;;7.40;99.90;;;;;;5075462;28;20047;-73
2023/04/18 03:02:12;;;;;;;0.90;0.90;;;7.30;99.90;;;;;;5092497;28;20036;-74
2023/04/18 03:04:38;;;;;;;1.35;1.25;;;7.30;99.90;;;;;;5093718;28;20043;-74
2023/04/18 03:07:03;;;;;;;1.20;1.20;;;7.40;99.90;;;;;;5126578;27;20032;-74
2023/04/18 03:09:29;;;;;;;1.35;1.25;;;7.40;99.90;;;;;;5074520;28;20059;-74
2023/04/18 03:11:54;;;;;;;1.20;1.20;;;7.40;99.90;;;;;;5075405;28;20046;-74
2023/04/18 03:14:20;;;;;;;1.30;1.30;;;7.40;99.90;;;;;;5092178;28;20032;-74
2023/04/18 03:16:45;;;;;;;1.15;1.15;;;7.40;99.90;;;;;;5075235;28;20400;-74
2023/04/18 03:19:11;;;;;;;1.30;1.20;;;7.40;99.90;;;;;;5092438;28;20036;-74
2023/04/18 03:21:37;;;;;;;1.20;1.20;;;7.30;99.90;;;;;;5126158;28;20373;-73
2023/04/18 03:24:02;;;;;;;1.30;1.30;;;7.40;99.90;;;;;;5092272;28;20036;-74
2023/04/18 03:26:28;;;;;;;1.00;1.00;;;7.40;99.90;;;;;;5091955;28;20131;-73
2023/04/18 03:28:54;;;;;;;1.13;1.10;;;7.40;99.90;;;;;;5092979;28;20052;-73
2023/04/18 03:31:20;;;;;;;1.15;1.15;;;7.40;99.90;;;;;;5075156;28;20523;-74
2023/04/18 03:33:46;;;;;;;1.20;1.20;;;7.50;99.90;;;;;;5092012;28;20047;-74
2023/04/18 03:36:16;;;;;;;1.13;1.13;;;7.50;99.90;;;;;;5091760;28;20105;-73
2023/04/18 03:38:41;;;;;;;1.10;1.10;;;7.40;99.90;;;;;;5075006;28;20060;-74
2023/04/18 03:41:07;;;;;;;1.15;1.15;;;7.40;99.90;;;;;;5092225;28;20044;-74
2023/04/18 03:43:32;;;;;;;1.20;1.20;;;7.40;99.90;;;;;;5091788;28;20055;-73
2023/04/18 03:45:58;;;;;;;1.05;1.05;;;7.40;99.90;;;;;;5091764;28;20413;-73
2023/04/18 03:48:24;;;;;;;1.10;1.10;;;7.40;99.90;;;;;;5092207;28;20036;-73
2023/04/18 03:50:49;;;;;;;1.15;1.15;;;7.30;99.90;;;;;;5092170;28;20425;-73
2023/04/18 03:53:15;;;;;;;1.20;1.20;;;7.20;99.90;;;;;;5093301;28;20384;-73
2023/04/18 03:55:42;;;;;;;1.23;1.23;;;7.20;99.90;;;;;;5092921;28;20096;-73
2023/04/18 03:58:08;;;;;;;1.15;1.15;;;7.10;99.90;;;;;;5093290;28;20032;-74
2023/04/18 04:00:34;;;;;;;1.17;1.17;;;7.10;99.90;;;;;;5093301;28;20059;-74
2023/04/18 04:02:59;;;;;;;1.10;1.10;;;7.10;99.90;;;;;;5091745;28;20456;-74
2023/04/18 04:05:25;;;;;;;1.40;1.30;;;7.20;99.90;;;;;;5091983;28;20036;-74
2023/04/18 04:07:51;;;;;;;1.17;1.17;;;7.20;99.90;;;;;;5093174;28;20089;-74
2023/04/18 04:10:16;;;;;;;1.00;1.00;;;7.20;99.90;;;;;;5092857;28;20105;-74
2023/04/18 04:12:42;;;;;;;1.00;1.00;;;7.20;99.90;;;;;;5091890;28;20071;-74
2023/04/18 04:15:08;;;;;;;1.10;1.10;;;7.20;99.90;;;;;;5091848;28;20043;-74
2023/04/18 04:17:33;;;;;;;1.50;1.40;;;7.20;99.90;;;;;;5091481;28;20040;-74
2023/04/18 04:19:59;;;;;;;1.00;1.00;;;7.20;99.90;;;;;;5075122;28;20086;-74
2023/04/18 04:22:25;;;;;;;1.67;1.10;;;7.30;99.90;;;;;;5096745;28;20519;-74
2023/04/18 04:24:51;;;;;;;1.00;1.00;;;7.30;99.90;;;;;;5095105;28;20076;-74
2023/04/18 04:27:17;;;;;;;1.10;1.10;;;7.30;99.90;;;;;;5129180;27;20047;-74
2023/04/18 04:29:43;;;;;;;1.05;1.05;;;7.20;99.90;;;;;;5095411;28;20054;-74
2023/04/18 04:32:09;;;;;;;1.10;1.10;;;7.30;99.90;;;;;;5096534;28;20532;-74
2023/04/18 04:34:35;;;;;;;1.20;1.20;;;7.30;99.90;;;;;;5096511;28;20044;-71
2023/04/18 04:37:01;;;;;;;1.13;1.13;;;7.30;99.90;;;;;;5094890;28;20048;-71
2023/04/18 04:39:27;;;;;;;1.00;1.00;;;7.40;99.90;;;;;;5077916;28;20066;-72
2023/04/18 04:41:53;;;;;;;1.20;1.10;;;7.30;99.90;;;;;;5129248;27;20044;-70
2023/04/18 04:44:21;;;;;;;1.10;1.10;;;7.30;99.90;;;;;;5129133;27;20479;-73
2023/04/18 04:46:46;;;;;;;1.10;1.10;;;7.40;99.90;;;;;;5077862;28;20055;-73
2023/04/18 04:49:12;;;;;;;1.00;1.00;;;7.40;99.90;;;;;;5094930;28;20048;-73
2023/04/18 04:51:38;;;;;;;0.90;0.90;;;7.40;99.90;;;;;;5096164;28;20032;-76
2023/04/18 04:54:05;;;;;;;1.05;1.05;;;7.40;99.90;;;;;;5077951;28;20036;-74
2023/04/18 04:56:31;;;;;;;1.10;1.10;;;7.40;99.90;;;;;;5096022;28;20106;-74
2023/04/18 04:58:56;;;;;;;1.13;1.00;;;7.40;99.90;;;;;;5094805;28;20040;-74
2023/04/18 05:01:22;;;;;;;1.25;1.15;;;7.40;99.90;;;;;;5094785;28;20038;-74
2023/04/18 05:03:50;;;;;;;1.00;1.00;;;7.40;99.90;;;;;;5077955;28;20423;-74
2023/04/18 05:06:19;;;;;;;1.10;1.10;;;7.40;99.90;;;;;;5095979;28;20048;-73
2023/04/18 05:08:46;;;;;;;1.00;1.00;;;7.40;99.90;;;;;;5095631;28;20433;-78
2023/04/18 05:11:12;;;;;;;1.00;1.00;;;7.40;99.90;;;;;;5094685;28;20089;-75
2023/04/18 05:13:37;;;;;;;0.90;0.90;;;7.40;99.90;;;;;;5077422;28;20135;-74
2023/04/18 05:16:03;;;;;;;1.17;1.17;;;7.40;99.90;;;;;;5095707;28;20407;-74
2023/04/18 05:18:29;;;;;;;1.05;1.05;;;7.40;99.90;;;;;;5077303;28;20040;-74
2023/04/18 05:20:55;;;;;;;1.10;1.10;;;7.40;99.90;;;;;;5095656;28;20111;-74
2023/04/18 05:23:21;;;;;;;1.15;1.08;;;7.40;99.90;;;;;;5095614;28;20040;-79
2023/04/18 05:25:47;;;;;;;1.10;1.10;;;7.30;99.90;;;;;;5095643;28;20040;-79
2023/04/18 05:28:12;;;;;;;1.30;1.20;;;7.40;99.90;;;;;;5094382;28;20403;-78
2023/04/18 05:30:39;;;;;;;0.98;0.98;;;7.40;99.90;;;;;;5076979;28;20122;-78
2023/04/18 05:33:05;;;;;;;1.10;1.05;;;7.50;99.90;;;;;;5076528;28;20040;-78
2023/04/18 05:35:30;;;;;;;1.65;1.20;;;7.40;99.90;;;;;;5076953;28;20042;-78
2023/04/18 05:37:57;;;;;;;1.20;1.20;;;7.50;99.90;;;;;;5094472;28;20062;-78
2023/04/18 05:40:23;;;;;;;1.20;1.20;;;7.40;99.90;;;;;;5094104;28;20463;-78
2023/04/18 05:42:49;;;;;;;1.20;1.20;;;7.40;99.90;;;;;;5127915;27;20044;-79
2023/04/18 05:45:14;;;;;;;1.17;1.17;;;7.40;99.90;;;;;;5093877;28;20115;-78
2023/04/18 05:47:40;;;;;;;0.90;0.90;;;7.40;99.90;;;;;;5093700;28;20472;-79
2023/04/18 05:50:06;;;;;;;1.48;1.38;;;7.40;99.90;;;;;;5093894;28;20028;-78
2023/04/18 05:52:32;;;;;;;1.40;1.30;;;7.40;99.90;;;;;;5093789;28;20468;-78
2023/04/18 05:54:58;;;;;;;1.20;1.20;;;7.40;99.90;;;;;;5093607;28;20063;-77
2023/04/18 05:57:23;;;;;;;1.25;1.15;;;7.50;99.90;;;;;;5093780;28;20089;-76
2023/04/18 05:59:49;;;;;;;1.27;1.23;;;7.50;99.90;;;;;;5093645;28;20533;-72
2023/04/18 06:02:15;;;;;;;1.00;1.00;;;7.50;99.90;;;;;;5076510;28;20048;-72
2023/04/18 06:04:41;;;;;;;1.08;1.08;;;7.60;99.90;;;;;;5094794;28;20063;-72
2023/04/18 06:07:07;;;;;;;1.00;1.00;;;7.60;99.90;;;;;;5094788;28;20047;-71
2023/04/18 06:09:33;;;;;;;1.10;1.10;;;7.60;99.90;;;;;;5094719;28;20047;-72
2023/04/18 06:11:58;;;;;;;1.20;1.20;;;7.60;99.90;;;;;;5094725;28;20048;-71
2023/04/18 06:14:24;;;;;;;1.30;1.20;;;7.70;99.90;;;;;;5094631;28;20047;-71
2023/04/18 06:16:50;;;;;;;1.10;1.10;;;7.80;99.90;;;;;;5094474;28;20388;-71
2023/04/18 06:19:16;;;;;;;1.00;1.00;;;7.80;99.90;;;;;;5093066;28;20078;-71
2023/04/18 06:21:41;;;;;;;1.23;1.23;;;7.80;99.90;;;;;;5094584;28;20121;-71
2023/04/18 06:24:08;;;;;;;1.15;1.15;;;7.90;99.90;;;;;;5093014;28;20082;-71
2023/04/18 06:26:33;;;;;;;1.15;1.10;;;8.00;99.90;;;;;;5092921;28;20044;-71
2023/04/18 06:28:59;;;;;;;1.20;1.10;;;8.00;99.90;;;;;;5094034;28;20157;-71
2023/04/18 06:31:25;;;;;;;1.00;1.00;;;8.00;99.90;;;;;;5094387;28;20039;-75
2023/04/18 06:33:51;;;;;;;0.95;0.95;;;8.10;99.90;;;;;;5092983;28;20131;-76
2023/04/18 06:36:17;;;;;;;0.98;0.98;;;8.10;99.90;;;;;;5126926;27;20484;-76
2023/04/18 06:38:42;;;;;;;1.05;1.05;;;8.20;99.90;;;;;;5093893;28;20500;-76
2023/04/18 06:41:08;;;;;;;1.55;1.08;;;8.20;99.90;;;;;;5092593;28;20048;-77
2023/04/18 06:43:35;;;;;;;1.10;1.10;;;8.30;99.90;;;;;;5092460;28;20048;-76
2023/04/18 06:46:01;;;;;;;1.00;1.00;;;8.40;99.90;;;;;;5075704;28;20051;-76
2023/04/18 06:48:27;;;;;;;0.95;0.95;;;8.40;99.90;;;;;;5092770;28;20388;-77
2023/04/18 06:50:52;;;;;;;0.80;0.80;;;8.40;99.90;;;;;;5093959;28;20039;-76
2023/04/18 06:53:18;;;;;;;0.88;0.88;;;8.50;99.90;;;;;;5092425;28;20051;-76
2023/04/18 06:55:44;;;;;;;0.88;0.88;;;8.50;99.90;;;;;;5075765;28;20044;-77
2023/04/18 06:58:12;;;;;;;0.98;0.98;;;8.60;99.90;;;;;;5093879;28;20564;-77
2023/04/18 07:00:38;;;;;;;0.90;0.90;;;8.60;99.90;;;;;;5092709;28;20043;-78
2023/04/18 07:03:08;;;;;;;1.00;1.00;;;8.60;99.90;;;;;;5092381;28;20044;-77
2023/04/18 07:05:35;;;;;;;1.00;1.00;;;8.70;99.90;;;;;;5075457;28;20043;-77
2023/04/18 07:08:01;;;;;;;0.90;0.90;;;8.80;99.90;;;;;;5093815;28;20047;-78
2023/04/18 07:10:27;;;;;;;0.98;0.98;;;8.80;99.90;;;;;;5075319;28;20044;-77
2023/04/18 07:12:52;;;;;;;0.90;0.90;;;8.90;99.90;;;;;;5092470;28;20039;-77
2023/04/18 07:15:18;;;;;;;0.90;0.90;;;9.00;99.90;;;;;;5092344;28;20044;-77
2023/04/18 07:17:43;;;;;;;0.93;0.93;;;9.00;99.90;;;;;;5092480;28;20256;-76
2023/04/18 07:20:10;;;;;;;0.90;0.90;;;9.10;99.90;;;;;;5092368;28;20040;-77
2023/04/18 07:22:35;;;;;;;0.93;0.93;;;9.20;99.90;;;;;;5092148;28;20484;-77
2023/04/18 07:25:01;;;;;;;0.80;0.80;;;9.40;99.90;;;;;;5092130;28;20055;-77
2023/04/18 07:27:27;;;;;;;0.90;0.90;;;9.50;99.90;;;;;;5126455;28;20079;-77
2023/04/18 07:29:52;;;;;;;1.15;0.93;;;9.60;99.90;;;;;;5093366;28;20488;-77
2023/04/18 07:32:18;;;;;;;0.70;0.70;;;9.70;99.90;;;;;;5093671;28;20039;-77
2023/04/18 07:34:43;;;;;;;0.93;0.93;;;9.70;99.90;;;;;;5092022;28;20461;-77
2023/04/18 07:37:10;;;;;;;0.80;0.80;;;9.60;99.90;;;;;;5093442;28;20078;-78
2023/04/18 07:39:36;;;;;;;0.80;0.80;;;9.60;99.90;;;;;;5074978;28;20048;-77
2023/04/18 07:42:04;;;;;;;0.68;0.68;;;9.60;99.90;;;;;;5093472;28;20043;-77
2023/04/18 07:44:30;;;;;;;0.80;0.80;;;9.60;99.90;;;;;;5074999;28;20076;-77
2023/04/18 07:46:57;;;;;;;0.93;0.93;;;9.60;99.90;;;;;;5091855;28;20523;-77
2023/04/18 07:49:22;;;;;;;1.13;0.90;;;9.60;99.90;;;;;;5093475;28;20075;-77
2023/04/18 07:51:48;;;;;;;0.98;0.90;;;9.70;99.90;;;;;;5093336;28;20066;-77
2023/04/18 07:54:14;;;;;;;1.00;1.00;;;9.70;99.90;;;;;;5091738;28;20055;-77
2023/04/18 07:56:39;;;;;;;0.90;0.90;;;9.80;99.90;;;;;;5094743;28;20047;-77
2023/04/18 07:59:05;;;;;;;0.85;0.85;;;9.80;99.90;;;;;;5097311;28;20495;-77
2023/04/18 08:01:31;;;;;;;1.02;1.02;;;9.80;99.90;;;;;;5097772;28;20392;-77
2023/04/18 08:04:00;;;;;;;0.88;0.88;;;9.80;99.90;;;;;;5097189;28;20052;-78
2023/04/18 08:06:26;;;;;;;1.00;1.00;;;9.90;99.90;;;;;;5096409;28;20464;-77
2023/04/18 08:08:51;;;;;;;0.88;0.88;;;10.00;99.90;;;;;;5097294;28;20063;-78
2023/04/18 08:11:17;;;;;;;1.05;0.90;;;10.10;99.90;;;;;;5097053;28;20071;-77
2023/04/18 08:13:43;;;;;;;1.25;0.90;;;10.30;99.90;;;;;;5095482;28;20048;-77
2023/04/18 08:16:08;;;;;;;0.90;0.90;;;10.30;99.90;;;;;;5095549;28;20040;-78
2023/04/18 08:18:35;;;;;;;0.90;0.90;;;10.40;99.90;;;;;;5096865;28;20075;-78
2023/04/18 08:21:00;;;;;;;1.70;1.00;;;10.50;99.90;;;;;;5078574;28;20047;-77
2023/04/18 08:23:26;;;;;;;0.80;0.80;;;10.50;99.90;;;;;;5095293;28;20036;-75
2023/04/18 08:25:51;;;;;;;0.90;0.90;;;10.60;99.90;;;;;;5095229;28;20518;-79
2023/04/18 08:28:17;;;;;;;0.88;0.88;;;10.60;99.90;;;;;;5078269;28;20408;-78
2023/04/18 08:30:47;;;;;;;0.80;0.80;;;10.70;99.90;;;;;;5095372;28;20044;-77
2023/04/18 08:33:13;;;;;;;;;;;10.70;99.90;;;;;;5095593;28;20094;-77
2023/04/18 08:35:38;;;;;;;0.88;0.88;;;10.70;99.90;;;;;;5095000;28;19923;-76
2023/04/18 08:38:04;;;;;;;0.90;0.90;;;10.80;99.90;;;;;;5094772;28;20036;-77
2023/04/18 08:40:30;;;;;;;0.80;0.80;;;10.80;99.90;;;;;;5096588;28;20434;-77
2023/04/18 08:42:57;;;;;;;0.82;0.82;;;10.80;99.90;;;;;;5094901;28;20047;-77
2023/04/18 08:45:23;;;;;;;0.90;0.90;;;10.80;99.90;;;;;;5096436;28;20040;-77
2023/04/18 08:47:48;;;;;;;0.80;0.80;;;10.80;99.90;;;;;;5129768;27;20047;-77
2023/04/18 08:50:15;;;;;;;0.80;0.80;;;10.80;99.90;;;;;;5096089;28;20036;-76
2023/04/18 08:52:47;;;;;;;0.82;0.82;;;10.90;99.90;;;;;;5095968;28;20040;-76
2023/04/18 08:55:14;;;;;;;0.80;0.80;;;11.10;99.90;;;;;;5096271;28;20050;-77
2023/04/18 08:57:39;;;;;;;0.80;0.80;;;11.20;99.90;;;;;;5096067;28;20115;-77
2023/04/18 09:00:08;;;;;;;0.90;0.90;;;11.40;99.90;;;;;;5096096;28;20519;-77
2023/04/18 09:02:42;;;;;;;0.90;0.90;;;11.50;99.90;;;;;;5096068;28;20051;-77
2023/04/18 09:05:13;;;;;;;0.70;0.70;;;11.60;99.90;;;;;;5096069;28;20040;-77
2023/04/18 09:07:39;;;;;;;0.80;0.80;;;11.70;99.90;;;;;;5094285;28;20488;-76
2023/04/18 09:10:06;;;;;;;0.70;0.70;;;11.80;99.90;;;;;;5095884;28;20044;-78
2023/04/18 09:12:33;;;;;;;0.70;0.70;;;11.80;99.90;;;;;;5094339;28;20050;-76
2023/04/18 09:15:14;;;;;;;0.80;0.80;;;11.90;99.90;;;;;;5095777;28;20051;-76
2023/04/18 09:17:45;;;;;;;0.70;0.70;;;12.00;99.90;;;;;;5095764;28;20118;-76
2023/04/18 09:20:24;;;;;;;0.80;0.80;;;12.10;99.90;;;;;;5095395;28;20040;-76
2023/04/18 09:22:51;;;;;;;0.70;0.70;;;12.20;99.90;;;;;;5094573;28;20039;-76
2023/04/18 09:25:26;;;;;;;0.70;0.70;;;12.30;99.90;;;;;;5094402;28;20089;-76
2023/04/18 09:27:52;;;;;;;0.63;0.63;;;12.30;99.90;;;;;;5094027;28;20048;-77
2023/04/18 09:30:38;;;;;;;0.60;0.60;;;12.40;99.90;;;;;;5095580;28;20431;-77
2023/04/18 09:33:09;;;;;;;0.70;0.70;;;12.40;99.90;;;;;;5095489;28;20035;-76
2023/04/18 09:35:38;;;;;;;0.70;0.70;;;12.40;99.90;;;;;;5094225;28;20365;-76
2023/04/18 09:38:05;;;;;;;0.75;0.75;;;12.40;99.90;;;;;;5095246;28;20040;-77
2023/04/18 09:40:31;;;;;;;0.68;0.68;;;12.40;99.90;;;;;;5095046;28;20498;-77
2023/04/18 09:42:57;;;;;;;0.60;0.60;;;12.50;99.90;;;;;;5095338;28;20032;-76
2023/04/18 09:45:23;;;;;;;0.63;0.63;;;12.40;99.90;;;;;;5095229;28;20036;-77
2023/04/18 09:47:50;;;;;;;0.73;0.70;;;12.50;99.90;;;;;;5095267;28;20349;-76
2023/04/18 09:50:17;;;;;;;0.60;0.60;;;12.50;99.90;;;;;;5095240;28;20046;-77
2023/04/18 09:52:44;;;;;;;0.85;0.85;;;12.60;99.90;;;;;;5095093;28;20036;-77
2023/04/18 09:55:14;;;;;;;0.70;0.70;;;12.60;99.90;;;;;;5093856;28;20040;-77
2023/04/18 09:57:41;;;;;;;;;;;12.70;99.90;;;;;;5094324;28;20468;-77
2023/04/18 10:00:16;;;;;;;0.85;0.70;;;12.70;99.90;;;;;;5093473;28;19923;-77
2023/04/18 10:02:44;;;;;;;0.70;0.70;;;12.70;99.90;;;;;;5094905;28;20032;-76
2023/04/18 10:05:12;;;;;;;0.60;0.60;;;12.80;99.90;;;;;;5094571;28;20092;-77
2023/04/18 10:07:38;;;;;;;0.80;0.80;;;12.80;99.90;;;;;;5094792;28;20036;-77
2023/04/18 10:10:05;;;;;;;0.70;0.70;;;12.80;99.90;;;;;;5094801;28;20040;-77
2023/04/18 10:12:31;;;;;;;0.63;0.63;;;12.90;99.90;;;;;;5094468;28;20472;-80
2023/04/18 10:14:57;;;;;;;0.70;0.70;;;13.00;99.90;;;;;;5094206;28;20158;-77
2023/04/18 10:17:26;;;;;;;0.55;0.55;;;13.00;99.90;;;;;;5094526;28;20055;-77
2023/04/18 10:20:11;;;;;;;0.80;0.80;;;13.10;99.90;;;;;;5094204;28;20036;-76
2023/04/18 10:22:37;;;;;;;0.57;0.57;;;13.20;99.90;;;;;;5094214;28;20036;-76
2023/04/18 10:25:03;;;;;;;0.60;0.60;;;13.20;99.90;;;;;;5076073;28;20036;-77
2023/04/18 10:27:47;;;;;;;0.60;0.60;;;13.30;99.90;;;;;;5094427;28;20044;-78
2023/04/18 10:30:13;;;;;;;0.63;0.63;;;13.40;99.90;;;;;;5092840;28;20062;-78
2023/04/18 10:32:39;;;;;;;0.60;0.60;;;13.50;99.90;;;;;;5094327;28;20040;-77
2023/04/18 10:35:05;;;;;;;0.50;0.50;;;13.60;99.90;;;;;;5093014;28;20497;-77
2023/04/18 10:37:32;;;;;;;0.60;0.60;;;13.60;99.90;;;;;;5094165;28;20036;-78
2023/04/18 10:40:04;;;;;;;0.60;0.60;;;13.60;99.90;;;;;;5075661;28;20050;-75
2023/04/18 10:42:48;;;;;;;0.55;0.55;;;13.70;99.90;;;;;;5092883;28;20043;-75
2023/04/18 10:45:22;;;;;;;0.63;0.60;;;13.80;99.90;;;;;;5092528;28;20040;-76
2023/04/18 10:47:48;;;;;;;1.05;0.52;;;13.80;99.90;;;;;;5094120;28;20423;-77
2023/04/18 10:50:14;;;;;;;0.50;0.50;;;13.80;99.90;;;;;;5094041;28;20036;-77
2023/04/18 10:52:40;;;;;;;0.80;0.80;;;13.80;99.90;;;;;;5094005;28;20036;-76
2023/04/18 10:55:11;;;;;;;0.60;0.60;;;13.80;99.90;;;;;;5094039;28;20040;-76
2023/04/18 10:57:45;;;;;;;0.70;0.70;;;13.90;99.90;;;;;;5093942;28;20039;-76
2023/04/18 11:00:12;;;;;;;0.50;0.50;;;14.00;99.90;;;;;;5092460;28;20156;-76
2023/04/18 11:02:39;;;;;;;0.75;0.57;;;14.00;99.90;;;;;;5093857;28;20040;-77
2023/04/18 11:05:07;;;;;;;0.65;0.65;;;14.10;99.90;;;;;;5093843;28;20036;-76
2023/04/18 11:07:35;;;;;;;0.70;0.70;;;14.00;99.90;;;;;;5093833;28;20075;-76
2023/04/18 11:10:02;;;;;;;0.75;0.70;;;14.10;99.90;;;;;;5093793;28;20047;-76
2023/04/18 11:12:32;;;;;;;0.70;0.70;;;14.20;99.90;;;;;;5093737;28;20115;-76
2023/04/18 11:14:58;;;;;;;;;;;14.20;99.90;;;;;;5093838;28;20046;-77
2023/04/18 11:17:25;;;;;;;0.60;0.60;;;14.30;99.90;;;;;;5093637;28;19920;-76
2023/04/18 11:20:07;;;;;;;0.60;0.60;;;14.30;99.90;;;;;;5092406;28;20093;-73
2023/04/18 11:23:08;;;;;;;0.60;0.60;;;14.40;99.90;;;;;;5092121;28;20048;-75
2023/04/18 11:25:35;;;;;;;0.73;0.73;;;14.40;99.90;;;;;;5090105;28;20055;-75
2023/04/18 11:28:03;;;;;;;0.88;0.80;;;14.40;99.90;;;;;;5093584;28;20115;-75
2023/04/18 11:30:36;;;;;;;0.70;0.70;;;14.50;99.90;;;;;;5093124;28;20036;-75
2023/04/18 11:33:10;;;;;;;0.70;0.70;;;14.50;99.90;;;;;;5096311;28;20068;-75
2023/04/18 11:35:40;;;;;;;0.73;0.73;;;14.50;99.10;;;;;;5096173;28;20040;-75
2023/04/18 11:38:07;;;;;;;0.70;0.63;;;14.60;99.30;;;;;;5096020;28;20036;-75
2023/04/18 11:40:34;;;;;;;0.63;0.63;;;14.60;98.30;;;;;;5096207;28;20040;-75
2023/04/18 11:43:01;;;;;;;0.75;0.75;;;14.60;99.10;;;;;;5096159;28;20043;-76
2023/04/18 11:45:27;;;;;;;0.70;0.70;;;14.70;99.70;;;;;;5097877;28;20040;-76
2023/04/18 11:47:57;;;;;;;0.60;0.60;;;14.70;99.00;;;;;;5130503;27;20047;-76
2023/04/18 11:50:23;;;;;;;0.70;0.70;;;14.80;99.90;;;;;;5097172;28;20039;-75
2023/04/18 11:52:51;;;;;;;0.70;0.70;;;14.80;99.40;;;;;;5097379;28;20044;-76
2023/04/18 11:55:25;;;;;;;0.93;0.60;;;14.90;98.50;;;;;;5095951;28;20072;-76
2023/04/18 11:57:52;;;;;;;0.73;0.73;;;14.90;98.20;;;;;;5097348;28;20428;-76
2023/04/18 12:00:40;;;;;;;0.82;0.70;;;15.00;98.60;;;;;;5097065;28;20036;-76
2023/04/18 12:03:15;;;;;;;2.28;0.73;;;15.10;97.60;;;;;;5097293;28;20161;-76
2023/04/18 12:05:41;;;;;;;1.10;0.68;;;15.10;97.30;;;;;;5097276;28;20103;-76
2023/04/18 12:08:12;;;;;;;0.80;0.70;;;15.20;97.10;;;;;;5095758;28;20181;-76
2023/04/18 12:10:45;;;;;;;0.70;0.70;;;15.20;97.90;;;;;;5097300;28;20400;-75
2023/04/18 12:13:11;;;;;;;1.25;0.70;;;15.20;96.30;;;;;;5097230;28;20061;-75
2023/04/18 12:15:43;;;;;;;0.60;0.60;;;15.20;97.10;;;;;;5095760;28;20115;-76
2023/04/18 12:18:11;;;;;;;0.80;0.63;;;15.30;98.40;;;;;;5097030;28;20047;-76
2023/04/18 12:20:48;;;;;;;0.70;0.70;;;15.40;97.40;;;;;;5097027;28;20093;-76
2023/04/18 12:23:37;;;;;;;0.70;0.70;;;15.40;96.30;;;;;;5095433;28;20056;-76
2023/04/18 12:26:17;;;;;;;0.80;0.80;;;15.50;97.70;;;;;;5096824;28;20036;-76
2023/04/18 12:28:49;;;;;;;0.70;0.70;;;15.60;96.90;;;;;;5095285;28;20055;-76
2023/04/18 12:31:15;;;;;;;0.60;0.60;;;15.80;97.60;;;;;;5096738;28;20047;-76
2023/04/18 12:33:41;;;;;;;0.60;0.60;;;15.90;96.50;;;;;;5078255;28;20395;-76
2023/04/18 12:36:08;;;;;;;0.60;0.60;;;16.00;96.30;;;;;;5096488;28;20123;-76
2023/04/18 12:38:34;;;;;;;0.55;0.55;;;15.90;96.10;;;;;;5094746;28;20056;-76
2023/04/18 12:41:00;;;;;;;0.60;0.60;;;16.00;96.30;;;;;;5095875;28;20090;-76
2023/04/18 12:43:25;;;;;;;0.50;0.50;;;15.90;95.40;;;;;;5096434;28;20035;-75
2023/04/18 12:45:51;;;;;;;0.60;0.60;;;15.90;95.80;;;;;;5096340;28;20032;-76
2023/04/18 12:48:17;;;;;;;0.50;0.50;;;16.00;95.20;;;;;;5096313;28;20036;-75
2023/04/18 12:50:43;;;;;;;0.50;0.50;;;16.00;95.60;;;;;;5094730;28;20040;-76
2023/04/18 12:53:08;;;;;;;0.60;0.60;;;16.00;94.80;;;;;;5094768;28;20079;-75